sensor_id;sensor_type;location;lat;lon;timestamp;pressure;altitude;pressure_sealevel;temperature;humidity
63285;BME280;49409;55.708;37.522;2022-08-01T00:00:11;99643.31;;;20.44;45.75
63285;BME280;49409;55.708;37.522;2022-08-01T00:02:37;99654.13;;;20.51;46.13
63285;BME280;49409;55.708;37.522;2022-08-01T00:05:03;99642.97;;;20.51;46.43
63285;BME280;49409;55.708;37.522;2022-08-01T00:07:31;99627.69;;;20.37;46.48
63285;BME280;49409;55.708;37.522;2022-08-01T00:09:57;99632.53;;;20.36;45.73
63285;BME280;49409;55.708;37.522;2022-08-01T00:12:23;99643.31;;;20.44;45.79
63285;BME280;49409;55.708;37.522;2022-08-01T00:14:48;99635.63;;;20.38;46.23
63285;BME280;49409;55.708;37.522;2022-08-01T00:17:14;99607.03;;;20.19;46.71
63285;BME280;49409;55.708;37.522;2022-08-01T00:19:40;99618.03;;;20.23;47.09
63285;BME280;49409;55.708;37.522;2022-08-01T00:22:05;99609.91;;;20.10;47.19
63285;BME280;49409;55.708;37.522;2022-08-01T00:24:31;99615.00;;;20.12;47.03
63285;BME280;49409;55.708;37.522;2022-08-01T00:26:56;99602.53;;;19.98;47.55
63285;BME280;49409;55.708;37.522;2022-08-01T00:29:22;99618.19;;;20.05;47.29
63285;BME280;49409;55.708;37.522;2022-08-01T00:31:47;99628.97;;;20.12;46.94
63285;BME280;49409;55.708;37.522;2022-08-01T00:34:13;99619.59;;;20.00;47.48
63285;BME280;49409;55.708;37.522;2022-08-01T00:36:39;99619.78;;;19.96;47.28
63285;BME280;49409;55.708;37.522;2022-08-01T00:39:05;99637.44;;;20.03;47.29
63285;BME280;49409;55.708;37.522;2022-08-01T00:41:30;99628.94;;;19.97;47.17
63285;BME280;49409;55.708;37.522;2022-08-01T00:43:56;99616.75;;;19.85;47.51
63285;BME280;49409;55.708;37.522;2022-08-01T00:46:21;99622.03;;;19.83;47.91
63285;BME280;49409;55.708;37.522;2022-08-01T00:48:47;99631.94;;;19.84;47.89
63285;BME280;49409;55.708;37.522;2022-08-01T00:51:13;99626.72;;;19.77;47.80
63285;BME280;49409;55.708;37.522;2022-08-01T00:53:39;99631.72;;;19.73;47.50
63285;BME280;49409;55.708;37.522;2022-08-01T00:56:05;99643.13;;;19.84;47.86
63285;BME280;49409;55.708;37.522;2022-08-01T00:58:32;99640.03;;;19.82;47.63
63285;BME280;49409;55.708;37.522;2022-08-01T01:00:59;99635.41;;;19.79;48.03
63285;BME280;49409;55.708;37.522;2022-08-01T01:03:25;99641.00;;;19.79;48.40
63285;BME280;49409;55.708;37.522;2022-08-01T01:06:19;99645.88;;;19.93;47.55
63285;BME280;49409;55.708;37.522;2022-08-01T01:11:34;99623.94;;;19.77;47.12
63285;BME280;49409;55.708;37.522;2022-08-01T01:14:09;99623.03;;;19.71;47.44
63285;BME280;49409;55.708;37.522;2022-08-01T01:16:38;99626.44;;;19.66;47.45
63285;BME280;49409;55.708;37.522;2022-08-01T01:19:11;99634.03;;;19.74;47.68
63285;BME280;49409;55.708;37.522;2022-08-01T01:22:15;99632.84;;;19.90;46.79
63285;BME280;49409;55.708;37.522;2022-08-01T01:28:02;99610.91;;;19.74;47.16
63285;BME280;49409;55.708;37.522;2022-08-01T01:30:33;99631.88;;;19.69;47.83
63285;BME280;49409;55.708;37.522;2022-08-01T01:33:02;99592.63;;;19.39;48.01
63285;BME280;49409;55.708;37.522;2022-08-01T01:35:32;99625.59;;;19.50;48.31
63285;BME280;49409;55.708;37.522;2022-08-01T01:38:07;99631.59;;;19.58;48.16
63285;BME280;49409;55.708;37.522;2022-08-01T01:40:34;99614.75;;;19.43;47.97
63285;BME280;49409;55.708;37.522;2022-08-01T01:43:01;99611.78;;;19.47;48.20
63285;BME280;49409;55.708;37.522;2022-08-01T01:45:28;99626.00;;;19.58;47.71
63285;BME280;49409;55.708;37.522;2022-08-01T01:47:56;99584.88;;;19.34;47.76
63285;BME280;49409;55.708;37.522;2022-08-01T01:50:23;99627.09;;;19.60;47.82
63285;BME280;49409;55.708;37.522;2022-08-01T01:52:50;99632.66;;;19.60;48.38
63285;BME280;49409;55.708;37.522;2022-08-01T01:55:17;99601.47;;;19.38;47.94
63285;BME280;49409;55.708;37.522;2022-08-01T01:57:44;99626.19;;;19.54;48.17
63285;BME280;49409;55.708;37.522;2022-08-01T02:00:12;99599.91;;;19.37;48.61
63285;BME280;49409;55.708;37.522;2022-08-01T02:02:38;99612.28;;;19.45;48.39
63285;BME280;49409;55.708;37.522;2022-08-01T02:05:06;99612.09;;;19.49;48.59
63285;BME280;49409;55.708;37.522;2022-08-01T02:07:34;99613.00;;;19.55;48.55
63285;BME280;49409;55.708;37.522;2022-08-01T02:10:03;99616.28;;;19.53;48.38
63285;BME280;49409;55.708;37.522;2022-08-01T02:12:35;99613.50;;;19.53;48.68
63285;BME280;49409;55.708;37.522;2022-08-01T02:15:02;99617.19;;;19.59;48.72
63285;BME280;49409;55.708;37.522;2022-08-01T02:17:29;99628.94;;;19.64;48.80
63285;BME280;49409;55.708;37.522;2022-08-01T02:19:56;99602.66;;;19.46;49.04
63285;BME280;49409;55.708;37.522;2022-08-01T02:22:29;99625.38;;;19.63;49.10
63285;BME280;49409;55.708;37.522;2022-08-01T02:25:05;99619.00;;;19.62;48.99
63285;BME280;49409;55.708;37.522;2022-08-01T02:28:04;99634.44;;;19.82;48.43
63285;BME280;49409;55.708;37.522;2022-08-01T02:30:39;99624.25;;;19.79;48.45
63285;BME280;49409;55.708;37.522;2022-08-01T02:33:16;99612.66;;;19.71;48.97
63285;BME280;49409;55.708;37.522;2022-08-01T02:35:44;99614.97;;;19.73;48.05
63285;BME280;49409;55.708;37.522;2022-08-01T02:38:13;99615.38;;;19.80;48.18
63285;BME280;49409;55.708;37.522;2022-08-01T02:40:42;99609.78;;;19.80;47.75
63285;BME280;49409;55.708;37.522;2022-08-01T02:43:10;99624.94;;;20.13;47.83
63285;BME280;49409;55.708;37.522;2022-08-01T02:45:41;99604.41;;;20.16;46.88
63285;BME280;49409;55.708;37.522;2022-08-01T02:48:10;99614.78;;;20.39;46.66
63285;BME280;49409;55.708;37.522;2022-08-01T02:50:37;99626.16;;;20.60;46.73
63285;BME280;49409;55.708;37.522;2022-08-01T02:53:05;99627.00;;;20.66;46.70
63285;BME280;49409;55.708;37.522;2022-08-01T02:55:32;99603.47;;;20.58;47.86
63285;BME280;49409;55.708;37.522;2022-08-01T02:57:58;99615.84;;;20.66;46.37
63285;BME280;49409;55.708;37.522;2022-08-01T03:00:26;99621.03;;;20.73;46.29
63285;BME280;49409;55.708;37.522;2022-08-01T03:02:53;99626.63;;;20.88;46.25
63285;BME280;49409;55.708;37.522;2022-08-01T03:05:20;99626.38;;;21.01;45.64
63285;BME280;49409;55.708;37.522;2022-08-01T03:07:47;99621.06;;;21.03;46.10
63285;BME280;49409;55.708;37.522;2022-08-01T03:10:14;99622.41;;;21.08;45.61
63285;BME280;49409;55.708;37.522;2022-08-01T03:12:42;99621.78;;;21.18;45.27
63285;BME280;49409;55.708;37.522;2022-08-01T03:15:10;99627.28;;;21.28;45.71
63285;BME280;49409;55.708;37.522;2022-08-01T03:17:38;99616.56;;;21.26;45.27
63285;BME280;49409;55.708;37.522;2022-08-01T03:20:06;99636.47;;;21.43;45.45
63285;BME280;49409;55.708;37.522;2022-08-01T03:22:34;99621.78;;;21.48;45.33
63285;BME280;49409;55.708;37.522;2022-08-01T03:25:03;99616.16;;;21.48;45.09
63285;BME280;49409;55.708;37.522;2022-08-01T03:27:29;99622.41;;;21.58;45.09
63285;BME280;49409;55.708;37.522;2022-08-01T03:29:56;99628.28;;;21.75;44.78
63285;BME280;49409;55.708;37.522;2022-08-01T03:32:24;99592.19;;;21.62;44.57
63285;BME280;49409;55.708;37.522;2022-08-01T03:34:52;99624.66;;;22.10;43.73
63285;BME280;49409;55.708;37.522;2022-08-01T03:37:41;99615.94;;;22.49;43.48
63285;BME280;49409;55.708;37.522;2022-08-01T03:40:11;99622.34;;;22.75;43.47
63285;BME280;49409;55.708;37.522;2022-08-01T03:42:47;99617.06;;;23.09;43.01
63285;BME280;49409;55.708;37.522;2022-08-01T03:45:25;99598.41;;;23.38;42.50
63285;BME280;49409;55.708;37.522;2022-08-01T03:47:55;99607.53;;;23.70;41.47
63285;BME280;49409;55.708;37.522;2022-08-01T03:50:23;99609.53;;;24.13;40.58
63285;BME280;49409;55.708;37.522;2022-08-01T03:52:50;99604.25;;;24.43;40.22
63285;BME280;49409;55.708;37.522;2022-08-01T03:55:17;99608.94;;;24.86;40.14
63285;BME280;49409;55.708;37.522;2022-08-01T03:57:45;99601.53;;;25.17;40.01
63285;BME280;49409;55.708;37.522;2022-08-01T04:00:12;99605.09;;;25.57;38.65
63285;BME280;49409;55.708;37.522;2022-08-01T04:02:38;99589.16;;;25.76;36.50
63285;BME280;49409;55.708;37.522;2022-08-01T04:05:04;99606.25;;;26.06;36.94
63285;BME280;49409;55.708;37.522;2022-08-01T04:07:32;99600.00;;;26.30;37.35
63285;BME280;49409;55.708;37.522;2022-08-01T04:09:58;99611.13;;;26.59;36.22
63285;BME280;49409;55.708;37.522;2022-08-01T04:12:24;99593.34;;;26.69;36.00
63285;BME280;49409;55.708;37.522;2022-08-01T04:14:50;99597.53;;;26.93;36.47
63285;BME280;49409;55.708;37.522;2022-08-01T04:17:16;99589.44;;;27.08;36.34
63285;BME280;49409;55.708;37.522;2022-08-01T04:19:42;99608.81;;;27.29;34.63
63285;BME280;49409;55.708;37.522;2022-08-01T04:22:10;99603.66;;;27.33;34.34
63285;BME280;49409;55.708;37.522;2022-08-01T04:24:37;99602.59;;;27.36;34.58
63285;BME280;49409;55.708;37.522;2022-08-01T04:27:06;99587.66;;;27.41;34.21
63285;BME280;49409;55.708;37.522;2022-08-01T04:29:36;99596.13;;;27.41;34.49
63285;BME280;49409;55.708;37.522;2022-08-01T04:32:02;99608.50;;;27.63;34.05
63285;BME280;49409;55.708;37.522;2022-08-01T04:34:31;99610.81;;;27.83;33.74
63285;BME280;49409;55.708;37.522;2022-08-01T04:37:00;99612.59;;;27.86;33.40
63285;BME280;49409;55.708;37.522;2022-08-01T04:39:27;99595.41;;;27.84;32.91
63285;BME280;49409;55.708;37.522;2022-08-01T04:41:55;99612.88;;;27.88;32.15
63285;BME280;49409;55.708;37.522;2022-08-01T04:44:24;99611.88;;;27.80;32.21
63285;BME280;49409;55.708;37.522;2022-08-01T04:46:51;99610.81;;;27.83;33.40
63285;BME280;49409;55.708;37.522;2022-08-01T04:49:20;99615.94;;;27.91;33.33
63285;BME280;49409;55.708;37.522;2022-08-01T04:51:54;99613.97;;;28.04;32.67
63285;BME280;49409;55.708;37.522;2022-08-01T04:54:34;99601.84;;;28.04;33.12
63285;BME280;49409;55.708;37.522;2022-08-01T04:57:03;99605.53;;;27.99;32.67
63285;BME280;49409;55.708;37.522;2022-08-01T04:59:31;99594.44;;;28.01;31.86
63285;BME280;49409;55.708;37.522;2022-08-01T05:02:14;99612.66;;;28.24;32.82
63285;BME280;49409;55.708;37.522;2022-08-01T05:04:40;99621.47;;;28.21;32.60
63285;BME280;49409;55.708;37.522;2022-08-01T05:07:06;99620.47;;;28.18;31.95
63285;BME280;49409;55.708;37.522;2022-08-01T05:09:33;99623.44;;;28.07;31.84
63285;BME280;49409;55.708;37.522;2022-08-01T05:12:00;99608.72;;;27.89;32.36
63285;BME280;49409;55.708;37.522;2022-08-01T05:14:28;99616.38;;;27.95;32.00
63285;BME280;49409;55.708;37.522;2022-08-01T05:16:54;99621.56;;;27.91;32.29
63285;BME280;49409;55.708;37.522;2022-08-01T05:19:20;99627.53;;;28.06;32.34
63285;BME280;49409;55.708;37.522;2022-08-01T05:21:46;99620.59;;;28.07;31.97
63285;BME280;49409;55.708;37.522;2022-08-01T05:24:12;99621.13;;;28.05;31.40
63285;BME280;49409;55.708;37.522;2022-08-01T05:26:38;99614.72;;;28.05;31.05
63285;BME280;49409;55.708;37.522;2022-08-01T05:29:04;99609.06;;;28.05;32.38
63285;BME280;49409;55.708;37.522;2022-08-01T05:31:30;99604.47;;;28.02;32.12
63285;BME280;49409;55.708;37.522;2022-08-01T05:33:57;99606.47;;;28.07;31.78
63285;BME280;49409;55.708;37.522;2022-08-01T05:36:23;99614.25;;;28.20;31.75
63285;BME280;49409;55.708;37.522;2022-08-01T05:38:48;99599.34;;;28.19;31.80
63285;BME280;49409;55.708;37.522;2022-08-01T05:41:14;99599.72;;;28.29;31.00
63285;BME280;49409;55.708;37.522;2022-08-01T05:43:39;99611.97;;;28.37;31.57
63285;BME280;49409;55.708;37.522;2022-08-01T05:46:05;99604.63;;;28.47;31.45
63285;BME280;49409;55.708;37.522;2022-08-01T05:48:30;99600.22;;;28.52;30.31
63285;BME280;49409;55.708;37.522;2022-08-01T05:50:56;99606.78;;;28.60;30.52
63285;BME280;49409;55.708;37.522;2022-08-01T05:53:22;99597.22;;;28.63;31.10
63285;BME280;49409;55.708;37.522;2022-08-01T05:55:47;99593.00;;;28.70;30.39
63285;BME280;49409;55.708;37.522;2022-08-01T05:58:13;99586.59;;;28.70;29.74
63285;BME280;49409;55.708;37.522;2022-08-01T06:00:39;99615.03;;;28.77;30.35
63285;BME280;49409;55.708;37.522;2022-08-01T06:03:04;99601.72;;;28.72;29.73
63285;BME280;49409;55.708;37.522;2022-08-01T06:05:30;99608.16;;;28.73;30.49
63285;BME280;49409;55.708;37.522;2022-08-01T06:07:55;99603.13;;;28.65;30.21
63285;BME280;49409;55.708;37.522;2022-08-01T06:10:21;99598.13;;;28.72;30.86
63285;BME280;49409;55.708;37.522;2022-08-01T06:12:46;99594.13;;;28.80;31.00
63285;BME280;49409;55.708;37.522;2022-08-01T06:15:13;99602.59;;;28.99;30.36
63285;BME280;49409;55.708;37.522;2022-08-01T06:17:38;99602.03;;;29.01;30.64
63285;BME280;49409;55.708;37.522;2022-08-01T06:20:05;99611.13;;;29.13;30.42
63285;BME280;49409;55.708;37.522;2022-08-01T06:22:31;99598.28;;;29.12;29.77
63285;BME280;49409;55.708;37.522;2022-08-01T06:24:57;99609.44;;;29.23;30.25
63285;BME280;49409;55.708;37.522;2022-08-01T06:27:22;99600.38;;;29.24;29.71
63285;BME280;49409;55.708;37.522;2022-08-01T06:29:50;99598.50;;;29.14;29.95
63285;BME280;49409;55.708;37.522;2022-08-01T06:32:19;99596.72;;;29.11;30.59
63285;BME280;49409;55.708;37.522;2022-08-01T06:34:44;99600.09;;;29.09;29.42
63285;BME280;49409;55.708;37.522;2022-08-01T06:37:10;99604.94;;;29.14;29.37
63285;BME280;49409;55.708;37.522;2022-08-01T06:39:38;99618.03;;;29.17;31.05
63285;BME280;49409;55.708;37.522;2022-08-01T06:42:03;99613.03;;;29.23;29.81
63285;BME280;49409;55.708;37.522;2022-08-01T06:44:29;99614.00;;;29.26;30.71
63285;BME280;49409;55.708;37.522;2022-08-01T06:46:54;99606.03;;;29.24;29.54
63285;BME280;49409;55.708;37.522;2022-08-01T06:49:20;99619.22;;;29.22;29.49
63285;BME280;49409;55.708;37.522;2022-08-01T06:51:45;99603.16;;;29.11;30.63
63285;BME280;49409;55.708;37.522;2022-08-01T06:54:11;99600.41;;;29.05;29.98
63285;BME280;49409;55.708;37.522;2022-08-01T06:56:36;99617.25;;;29.17;29.88
63285;BME280;49409;55.708;37.522;2022-08-01T06:59:02;99622.28;;;29.24;31.37
63285;BME280;49409;55.708;37.522;2022-08-01T07:01:28;99620.44;;;29.26;31.40
63285;BME280;49409;55.708;37.522;2022-08-01T07:03:53;99630.50;;;29.41;30.71
63285;BME280;49409;55.708;37.522;2022-08-01T07:06:20;99621.91;;;29.46;30.62
63285;BME280;49409;55.708;37.522;2022-08-01T07:08:45;99621.44;;;29.56;29.72
63285;BME280;49409;55.708;37.522;2022-08-01T07:11:11;99624.28;;;29.56;29.92
63285;BME280;49409;55.708;37.522;2022-08-01T07:13:36;99584.59;;;29.29;30.74
63285;BME280;49409;55.708;37.522;2022-08-01T07:16:02;99619.28;;;29.49;31.00
63285;BME280;49409;55.708;37.522;2022-08-01T07:18:27;99628.88;;;29.59;30.25
63285;BME280;49409;55.708;37.522;2022-08-01T07:20:53;99630.84;;;29.64;30.62
63285;BME280;49409;55.708;37.522;2022-08-01T07:23:18;99621.34;;;29.61;30.90
63285;BME280;49409;55.708;37.522;2022-08-01T07:25:44;99608.94;;;29.64;31.33
63285;BME280;49409;55.708;37.522;2022-08-01T07:28:09;99613.19;;;29.71;29.75
63285;BME280;49409;55.708;37.522;2022-08-01T07:30:35;99618.78;;;29.77;30.79
63285;BME280;49409;55.708;37.522;2022-08-01T07:33:01;99623.00;;;29.83;29.15
63285;BME280;49409;55.708;37.522;2022-08-01T07:35:27;99619.09;;;29.87;29.90
63285;BME280;49409;55.708;37.522;2022-08-01T07:37:52;99615.06;;;29.82;29.64
63285;BME280;49409;55.708;37.522;2022-08-01T07:40:19;99608.63;;;29.68;28.55
63285;BME280;49409;55.708;37.522;2022-08-01T07:42:45;99619.53;;;29.77;29.16
63285;BME280;49409;55.708;37.522;2022-08-01T07:45:12;99615.72;;;29.75;29.17
63285;BME280;49409;55.708;37.522;2022-08-01T07:47:37;99617.34;;;29.83;30.34
63285;BME280;49409;55.708;37.522;2022-08-01T07:50:04;99604.66;;;29.71;28.94
63285;BME280;49409;55.708;37.522;2022-08-01T07:52:30;99622.78;;;29.81;29.01
63285;BME280;49409;55.708;37.522;2022-08-01T07:54:57;99620.84;;;29.76;28.76
63285;BME280;49409;55.708;37.522;2022-08-01T07:57:23;99621.94;;;29.73;28.84
63285;BME280;49409;55.708;37.522;2022-08-01T07:59:49;99605.44;;;29.58;30.21
63285;BME280;49409;55.708;37.522;2022-08-01T08:02:14;99608.16;;;29.64;29.72
63285;BME280;49409;55.708;37.522;2022-08-01T08:04:41;99606.53;;;29.69;30.06
63285;BME280;49409;55.708;37.522;2022-08-01T08:07:06;99608.19;;;29.77;29.53
63285;BME280;49409;55.708;37.522;2022-08-01T08:09:32;99618.78;;;29.90;28.79
63285;BME280;49409;55.708;37.522;2022-08-01T08:11:58;99606.56;;;29.82;28.78
63285;BME280;49409;55.708;37.522;2022-08-01T08:14:23;99620.19;;;29.83;28.23
63285;BME280;49409;55.708;37.522;2022-08-01T08:16:50;99602.63;;;29.72;29.37
63285;BME280;49409;55.708;37.522;2022-08-01T08:19:15;99608.41;;;29.79;29.62
63285;BME280;49409;55.708;37.522;2022-08-01T08:21:41;99606.84;;;29.92;29.58
63285;BME280;49409;55.708;37.522;2022-08-01T08:24:08;99592.34;;;29.95;28.42
63285;BME280;49409;55.708;37.522;2022-08-01T08:30:15;99596.56;;;30.15;28.99
63285;BME280;49409;55.708;37.522;2022-08-01T08:36:21;99595.47;;;30.18;28.75
63285;BME280;49409;55.708;37.522;2022-08-01T08:42:27;99586.66;;;29.95;28.36
63285;BME280;49409;55.708;37.522;2022-08-01T08:44:53;99585.06;;;29.87;29.00
63285;BME280;49409;55.708;37.522;2022-08-01T08:47:23;99594.75;;;30.04;28.78
63285;BME280;49409;55.708;37.522;2022-08-01T08:49:53;99589.16;;;30.12;28.35
63285;BME280;49409;55.708;37.522;2022-08-01T08:52:20;99594.84;;;30.12;27.63
63285;BME280;49409;55.708;37.522;2022-08-01T08:54:47;99593.66;;;30.08;27.25
63285;BME280;49409;55.708;37.522;2022-08-01T08:57:14;99597.25;;;29.95;28.27
63285;BME280;49409;55.708;37.522;2022-08-01T08:59:42;99589.31;;;29.80;29.32
63285;BME280;49409;55.708;37.522;2022-08-01T09:02:09;99591.81;;;29.70;28.88
63285;BME280;49409;55.708;37.522;2022-08-01T09:04:35;99583.19;;;29.62;29.60
63285;BME280;49409;55.708;37.522;2022-08-01T09:07:03;99589.63;;;29.90;29.21
63285;BME280;49409;55.708;37.522;2022-08-01T09:09:29;99589.06;;;30.04;28.81
63285;BME280;49409;55.708;37.522;2022-08-01T09:11:55;99581.94;;;30.11;27.38
63285;BME280;49409;55.708;37.522;2022-08-01T09:14:21;99593.81;;;30.23;27.85
63285;BME280;49409;55.708;37.522;2022-08-01T09:17:01;99598.25;;;30.45;28.53
63285;BME280;49409;55.708;37.522;2022-08-01T09:19:34;99586.06;;;30.37;27.78
63285;BME280;49409;55.708;37.522;2022-08-01T09:22:01;99581.06;;;30.30;27.28
63285;BME280;49409;55.708;37.522;2022-08-01T09:24:29;99575.38;;;30.30;26.71
63285;BME280;49409;55.708;37.522;2022-08-01T09:26:55;99559.34;;;30.19;27.00
63285;BME280;49409;55.708;37.522;2022-08-01T09:29:24;99571.91;;;30.23;27.54
63285;BME280;49409;55.708;37.522;2022-08-01T09:31:50;99582.81;;;30.19;27.60
63285;BME280;49409;55.708;37.522;2022-08-01T09:34:25;99540.72;;;30.10;28.66
63285;BME280;49409;55.708;37.522;2022-08-01T09:36:54;99577.63;;;30.44;28.09
63285;BME280;49409;55.708;37.522;2022-08-01T09:39:32;99574.03;;;30.44;27.89
63285;BME280;49409;55.708;37.522;2022-08-01T09:42:01;99572.09;;;30.39;28.63
63285;BME280;49409;55.708;37.522;2022-08-01T09:44:38;99563.19;;;30.56;28.15
63285;BME280;49409;55.708;37.522;2022-08-01T09:47:04;99568.09;;;30.55;27.64
63285;BME280;49409;55.708;37.522;2022-08-01T09:49:31;99577.97;;;30.75;27.76
63285;BME280;49409;55.708;37.522;2022-08-01T09:51:58;99555.75;;;30.53;27.21
63285;BME280;49409;55.708;37.522;2022-08-01T09:54:32;99565.19;;;30.69;27.77
63285;BME280;49409;55.708;37.522;2022-08-01T09:57:15;99562.50;;;30.84;26.60
63285;BME280;49409;55.708;37.522;2022-08-01T09:59:44;99569.56;;;30.70;27.16
63285;BME280;49409;55.708;37.522;2022-08-01T10:02:25;99570.03;;;30.60;27.01
63285;BME280;49409;55.708;37.522;2022-08-01T10:04:52;99560.47;;;30.50;27.64
63285;BME280;49409;55.708;37.522;2022-08-01T10:07:18;99549.28;;;30.31;27.87
63285;BME280;49409;55.708;37.522;2022-08-01T10:09:45;99570.78;;;30.27;27.16
63285;BME280;49409;55.708;37.522;2022-08-01T10:12:13;99574.00;;;30.10;27.25
63285;BME280;49409;55.708;37.522;2022-08-01T10:14:40;99566.69;;;30.01;27.47
63285;BME280;49409;55.708;37.522;2022-08-01T10:17:09;99570.06;;;29.99;28.27
63285;BME280;49409;55.708;37.522;2022-08-01T10:19:36;99568.69;;;29.93;28.04
63285;BME280;49409;55.708;37.522;2022-08-01T10:22:04;99565.09;;;29.92;28.46
63285;BME280;49409;55.708;37.522;2022-08-01T10:24:36;99546.44;;;29.83;27.46
63285;BME280;49409;55.708;37.522;2022-08-01T10:27:05;99567.72;;;29.90;29.08
63285;BME280;49409;55.708;37.522;2022-08-01T10:32:07;99569.44;;;29.80;28.18
63285;BME280;49409;55.708;37.522;2022-08-01T10:34:35;99565.50;;;29.70;27.95
63285;BME280;49409;55.708;37.522;2022-08-01T10:37:01;99571.50;;;29.66;27.67
63285;BME280;49409;55.708;37.522;2022-08-01T10:39:28;99570.00;;;29.65;28.80
63285;BME280;49409;55.708;37.522;2022-08-01T10:41:56;99557.47;;;29.60;29.02
63285;BME280;49409;55.708;37.522;2022-08-01T10:44:23;99541.84;;;29.54;29.37
63285;BME280;49409;55.708;37.522;2022-08-01T10:46:52;99548.06;;;29.65;28.49
63285;BME280;49409;55.708;37.522;2022-08-01T10:49:20;99554.84;;;29.62;28.99
63285;BME280;49409;55.708;37.522;2022-08-01T10:51:48;99568.00;;;29.60;28.53
63285;BME280;49409;55.708;37.522;2022-08-01T10:54:14;99538.78;;;29.38;27.90
63285;BME280;49409;55.708;37.522;2022-08-01T10:56:46;99554.84;;;29.49;28.45
63285;BME280;49409;55.708;37.522;2022-08-01T10:59:27;99543.81;;;29.59;29.09
63285;BME280;49409;55.708;37.522;2022-08-01T11:04:51;99552.53;;;29.88;28.30
63285;BME280;49409;55.708;37.522;2022-08-01T11:07:24;99560.88;;;29.72;27.43
63285;BME280;49409;55.708;37.522;2022-08-01T11:10:39;99543.81;;;29.85;28.06
63285;BME280;49409;55.708;37.522;2022-08-01T11:13:06;99545.53;;;29.62;27.86
63285;BME280;49409;55.708;37.522;2022-08-01T11:15:37;99552.00;;;29.62;27.88
63285;BME280;49409;55.708;37.522;2022-08-01T11:21:00;99527.47;;;29.78;28.02
63285;BME280;49409;55.708;37.522;2022-08-01T11:23:28;99523.09;;;29.77;27.89
63285;BME280;49409;55.708;37.522;2022-08-01T11:28:21;99502.16;;;29.80;27.84
63285;BME280;49409;55.708;37.522;2022-08-01T11:30:52;99510.38;;;30.05;27.25
63285;BME280;49409;55.708;37.522;2022-08-01T11:33:19;99529.78;;;30.14;26.99
63285;BME280;49409;55.708;37.522;2022-08-01T11:41:17;99520.38;;;30.19;27.28
63285;BME280;49409;55.708;37.522;2022-08-01T11:49:33;99526.97;;;30.01;27.38
63285;BME280;49409;55.708;37.522;2022-08-01T11:52:11;99523.06;;;29.91;27.49
63285;BME280;49409;55.708;37.522;2022-08-01T11:54:56;99515.22;;;29.83;27.49
63285;BME280;49409;55.708;37.522;2022-08-01T11:57:28;99503.56;;;29.74;27.50
63285;BME280;49409;55.708;37.522;2022-08-01T12:00:03;99507.19;;;29.74;28.60
63285;BME280;49409;55.708;37.522;2022-08-01T12:02:31;99508.03;;;29.82;28.28
63285;BME280;49409;55.708;37.522;2022-08-01T12:05:09;99498.19;;;29.97;27.69
63285;BME280;49409;55.708;37.522;2022-08-01T12:07:38;99512.56;;;29.99;26.60
63285;BME280;49409;55.708;37.522;2022-08-01T12:10:06;99486.63;;;29.95;26.41
63285;BME280;49409;55.708;37.522;2022-08-01T12:12:34;99500.78;;;30.08;26.78
63285;BME280;49409;55.708;37.522;2022-08-01T12:15:06;99502.25;;;30.22;26.25
63285;BME280;49409;55.708;37.522;2022-08-01T12:20:04;99496.56;;;30.22;26.08
63285;BME280;49409;55.708;37.522;2022-08-01T12:22:31;99498.84;;;30.24;26.06
63285;BME280;49409;55.708;37.522;2022-08-01T12:25:05;99500.47;;;30.33;26.44
63285;BME280;49409;55.708;37.522;2022-08-01T12:27:31;99478.66;;;30.28;27.02
63285;BME280;49409;55.708;37.522;2022-08-01T12:29:57;99485.44;;;30.24;26.12
63285;BME280;49409;55.708;37.522;2022-08-01T12:32:31;99480.63;;;30.19;26.35
63285;BME280;49409;55.708;37.522;2022-08-01T12:37:51;99491.84;;;30.25;26.55
63285;BME280;49409;55.708;37.522;2022-08-01T12:40:24;99487.72;;;30.26;26.24
63285;BME280;49409;55.708;37.522;2022-08-01T12:42:55;99484.38;;;30.14;25.72
63285;BME280;49409;55.708;37.522;2022-08-01T12:45:26;99493.28;;;30.32;26.79
63285;BME280;49409;55.708;37.522;2022-08-01T12:47:54;99492.06;;;30.27;27.19
63285;BME280;49409;55.708;37.522;2022-08-01T12:50:22;99478.28;;;30.10;26.82
63285;BME280;49409;55.708;37.522;2022-08-01T12:52:49;99489.31;;;30.14;27.29
63285;BME280;49409;55.708;37.522;2022-08-01T12:55:19;99484.38;;;30.14;26.82
63285;BME280;49409;55.708;37.522;2022-08-01T12:57:50;99447.03;;;29.89;26.30
63285;BME280;49409;55.708;37.522;2022-08-01T13:00:25;99470.44;;;30.03;26.96
63285;BME280;49409;55.708;37.522;2022-08-01T13:05:49;99475.56;;;30.04;27.36
63285;BME280;49409;55.708;37.522;2022-08-01T13:08:23;99469.84;;;29.83;27.50
63285;BME280;49409;55.708;37.522;2022-08-01T13:10:51;99465.09;;;29.52;26.83
63285;BME280;49409;55.708;37.522;2022-08-01T13:13:37;99462.25;;;29.52;27.42
63285;BME280;49409;55.708;37.522;2022-08-01T13:16:04;99453.56;;;29.23;27.00
63285;BME280;49409;55.708;37.522;2022-08-01T13:18:31;99469.25;;;29.24;27.03
63285;BME280;49409;55.708;37.522;2022-08-01T13:23:36;99468.56;;;28.91;28.40
63285;BME280;49409;55.708;37.522;2022-08-01T13:26:08;99472.91;;;28.92;28.21
63285;BME280;49409;55.708;37.522;2022-08-01T13:28:34;99462.88;;;28.78;28.40
63285;BME280;49409;55.708;37.522;2022-08-01T13:31:04;99454.34;;;28.64;27.83
63285;BME280;49409;55.708;37.522;2022-08-01T13:33:44;99446.84;;;28.67;27.94
63285;BME280;49409;55.708;37.522;2022-08-01T13:36:11;99470.16;;;28.60;28.23
63285;BME280;49409;55.708;37.522;2022-08-01T13:38:38;99463.88;;;28.48;28.55
63285;BME280;49409;55.708;37.522;2022-08-01T13:41:36;99467.53;;;28.62;28.14
63285;BME280;49409;55.708;37.522;2022-08-01T13:44:02;99468.50;;;28.64;29.52
63285;BME280;49409;55.708;37.522;2022-08-01T13:46:27;99458.03;;;28.59;28.62